Time;durP1;ratioP1;P1;durP2;ratioP2;P2;SDS_P1;SDS_P2;PMS_P1;PMS_P2;Temp;Humidity;BMP_temperature;BMP_pressure;BME280_temperature;BME280_humidity;BME280_pressure;Samples;Min_cycle;Max_cycle;Signal;HPM_P1;HPM_P2
2022/10/14 00:01:51;;;;;;;25.63;18.20;;;12.50;99.90;;;;;;4991040;28;20220;-79
2022/10/14 00:04:18;;;;;;;30.30;20.00;;;12.50;99.90;;;;;;4989117;28;20601;-78
2022/10/14 00:06:44;;;;;;;28.30;19.57;;;12.50;99.90;;;;;;4992006;28;20230;-79
2022/10/14 00:09:14;;;;;;;28.20;19.20;;;12.50;99.90;;;;;;4991685;28;20249;-78
2022/10/14 00:11:40;;;;;;;25.63;18.57;;;12.50;99.90;;;;;;4995076;28;20231;-77
2022/10/14 00:14:10;;;;;;;27.07;18.17;;;12.50;99.90;;;;;;4981049;28;20227;-79
2022/10/14 00:16:38;;;;;;;27.97;19.90;;;12.50;99.90;;;;;;4987403;28;20704;-79
2022/10/14 00:19:07;;;;;;;24.23;18.43;;;12.50;99.90;;;;;;4983133;28;20221;-78
2022/10/14 00:21:36;;;;;;;26.53;18.93;;;12.40;99.90;;;;;;4986333;28;20238;-78
2022/10/14 00:24:04;;;;;;;26.83;18.07;;;12.50;99.90;;;;;;4979147;28;20258;-77
2022/10/14 00:26:33;;;;;;;27.63;18.70;;;12.50;99.90;;;;;;4978473;28;20718;-78
2022/10/14 00:29:16;;;;;;;29.13;19.63;;;12.50;99.90;;;;;;4980636;28;20227;-79
2022/10/14 00:31:43;;;;;;;31.33;21.13;;;12.50;99.90;;;;;;4983452;28;20232;-78
2022/10/14 00:34:11;;;;;;;27.07;20.13;;;12.50;99.90;;;;;;4980513;28;20228;-79
2022/10/14 00:36:39;;;;;;;31.33;21.90;;;12.50;99.90;;;;;;4984706;28;20224;-78
2022/10/14 00:39:10;;;;;;;27.40;20.03;;;12.40;99.90;;;;;;4980205;28;20802;-77
2022/10/14 00:41:38;;;;;;;30.17;21.23;;;12.50;99.90;;;;;;4984396;28;20225;-78
2022/10/14 00:44:07;;;;;;;29.23;21.33;;;12.40;99.90;;;;;;4986763;28;20705;-79
2022/10/14 00:46:36;;;;;;;29.93;20.73;;;12.40;99.90;;;;;;4986586;28;20237;-78
2022/10/14 00:49:10;;;;;;;29.97;21.53;;;12.40;99.90;;;;;;4986500;28;20232;-78
2022/10/14 00:51:39;;;;;;;34.17;23.23;;;12.40;99.90;;;;;;4978061;28;20353;-78
2022/10/14 00:54:07;;;;;;;31.80;20.40;;;12.30;99.90;;;;;;4979223;28;20262;-78
2022/10/14 00:56:35;;;;;;;31.23;19.80;;;12.40;99.90;;;;;;4984966;28;20223;-79
2022/10/14 00:59:04;;;;;;;29.43;20.03;;;12.30;99.90;;;;;;4978237;28;20287;-79
2022/10/14 01:01:31;;;;;;;30.33;20.47;;;12.30;99.90;;;;;;4981680;28;20830;-78
2022/10/14 01:03:57;;;;;;;29.63;20.67;;;12.30;99.90;;;;;;4987055;28;20730;-78
2022/10/14 01:06:40;;;;;;;27.30;19.87;;;12.30;99.90;;;;;;4986656;28;20233;-78
2022/10/14 01:09:18;;;;;;;30.33;20.20;;;12.30;99.90;;;;;;4983959;28;20223;-78
2022/10/14 01:11:52;;;;;;;30.07;20.77;;;12.30;99.90;;;;;;4984045;28;20214;-79
2022/10/14 01:14:27;;;;;;;31.50;21.07;;;12.30;99.90;;;;;;4986280;28;20225;-79
2022/10/14 01:17:01;;;;;;;33.03;20.37;;;12.30;99.90;;;;;;4991189;28;20218;-78
2022/10/14 01:19:50;;;;;;;36.03;21.23;;;12.30;99.90;;;;;;4997713;28;20587;-79
2022/10/14 01:22:26;;;;;;;32.13;21.37;;;12.20;99.90;;;;;;4978189;28;20235;-79
2022/10/14 01:25:09;;;;;;;32.07;22.70;;;12.30;99.90;;;;;;4984300;28;20782;-79
2022/10/14 01:27:57;;;;;;;29.67;19.57;;;12.20;99.90;;;;;;4988485;28;20313;-79
2022/10/14 01:30:31;;;;;;;32.10;21.17;;;12.30;99.90;;;;;;4983316;28;20245;-79
2022/10/14 01:33:09;;;;;;;33.90;22.27;;;12.20;99.90;;;;;;4995565;28;20310;-78
2022/10/14 01:35:58;;;;;;;34.53;21.37;;;12.20;99.90;;;;;;4980725;28;20255;-79
2022/10/14 01:38:31;;;;;;;36.27;22.57;;;12.20;99.90;;;;;;4981926;28;20306;-78
2022/10/14 01:41:07;;;;;;;36.30;23.43;;;12.20;99.90;;;;;;4981045;28;20226;-79
2022/10/14 01:43:35;;;;;;;33.83;22.63;;;12.20;99.90;;;;;;4982877;28;20244;-79
2022/10/14 01:46:06;;;;;;;34.53;23.13;;;12.10;99.90;;;;;;4983129;28;20982;-79
2022/10/14 01:48:36;;;;;;;34.20;21.70;;;12.10;99.90;;;;;;4977593;28;20652;-80
2022/10/14 01:51:09;;;;;;;36.37;23.03;;;12.10;99.90;;;;;;4989961;28;20255;-79
2022/10/14 01:53:40;;;;;;;32.67;20.57;;;12.10;99.90;;;;;;4989005;28;20321;-80
2022/10/14 01:56:09;;;;;;;34.40;21.47;;;12.10;99.90;;;;;;4983555;28;20302;-80
2022/10/14 01:58:38;;;;;;;35.17;22.30;;;12.20;99.90;;;;;;4988886;28;20234;-79
2022/10/14 02:01:08;;;;;;;34.17;23.27;;;12.10;99.90;;;;;;4987539;28;20222;-80
2022/10/14 02:03:40;;;;;;;36.70;21.97;;;12.10;99.90;;;;;;4989820;28;20291;-79
2022/10/14 02:06:11;;;;;;;35.97;22.83;;;12.20;99.90;;;;;;4985783;28;20787;-78
2022/10/14 02:09:03;;;;;;;41.30;23.87;;;12.20;99.90;;;;;;4983897;28;20255;-79
2022/10/14 02:11:34;;;;;;;34.40;21.63;;;12.20;99.90;;;;;;4986208;28;20278;-78
2022/10/14 02:14:10;;;;;;;34.73;21.53;;;12.20;99.90;;;;;;4989827;28;20221;-77
2022/10/14 02:16:42;;;;;;;37.80;23.10;;;12.20;99.90;;;;;;4976546;28;20763;-78
2022/10/14 02:19:20;;;;;;;36.60;22.67;;;12.20;99.90;;;;;;4995640;28;20227;-78
2022/10/14 02:21:52;;;;;;;33.83;20.90;;;12.20;99.90;;;;;;4981934;28;20247;-78
2022/10/14 02:24:24;;;;;;;35.87;23.03;;;12.20;99.90;;;;;;4980376;28;20629;-78
2022/10/14 02:26:53;;;;;;;36.03;23.17;;;12.20;99.90;;;;;;4985666;28;20630;-78
2022/10/14 02:29:22;;;;;;;36.30;22.47;;;12.20;99.90;;;;;;4982389;28;21787;-78
2022/10/14 02:31:53;;;;;;;29.63;20.93;;;12.20;99.90;;;;;;4985306;28;20223;-79
2022/10/14 02:34:23;;;;;;;32.03;20.93;;;12.20;99.90;;;;;;4984744;28;20218;-78
2022/10/14 02:36:51;;;;;;;30.70;21.27;;;12.20;99.90;;;;;;4979012;28;20330;-77
2022/10/14 02:39:25;;;;;;;32.97;21.37;;;12.20;99.90;;;;;;4984169;28;20218;-78
2022/10/14 02:41:52;;;;;;;33.30;22.50;;;12.10;99.90;;;;;;4982950;28;20255;-79
2022/10/14 02:44:19;;;;;;;36.13;22.43;;;12.10;99.90;;;;;;4976419;28;20680;-79
2022/10/14 02:46:46;;;;;;;30.63;20.83;;;12.20;99.90;;;;;;4977941;28;20704;-79
2022/10/14 02:49:15;;;;;;;33.70;21.90;;;12.10;99.90;;;;;;4983177;28;20226;-79
2022/10/14 02:51:43;;;;;;;35.40;22.13;;;12.10;99.90;;;;;;4980928;28;20298;-79
2022/10/14 02:54:11;;;;;;;32.27;20.67;;;12.20;99.90;;;;;;4979968;28;20378;-79
2022/10/14 02:56:37;;;;;;;37.43;23.23;;;12.20;99.90;;;;;;4983467;28;20246;-80
2022/10/14 02:59:04;;;;;;;33.90;22.33;;;12.20;99.90;;;;;;4987699;28;20222;-79
2022/10/14 03:01:32;;;;;;;35.00;22.20;;;12.20;99.90;;;;;;4991836;28;20322;-80
2022/10/14 03:03:58;;;;;;;38.53;23.70;;;12.20;99.90;;;;;;4979667;28;20551;-80
2022/10/14 03:06:27;;;;;;;34.17;22.60;;;12.20;99.90;;;;;;4982360;28;20649;-79
2022/10/14 03:08:57;;;;;;;37.83;23.90;;;12.20;99.90;;;;;;4984402;28;20288;-79
2022/10/14 03:11:24;;;;;;;38.40;24.53;;;12.20;99.90;;;;;;4984380;28;20234;-78
2022/10/14 03:13:52;;;;;;;38.30;24.23;;;12.20;99.90;;;;;;4985607;28;20746;-78
2022/10/14 03:16:20;;;;;;;39.87;24.77;;;12.20;99.90;;;;;;4998368;22;20705;-83
2022/10/14 03:18:47;;;;;;;40.73;24.00;;;12.20;99.90;;;;;;5012569;28;20226;-83
2022/10/14 03:21:24;;;;;;;42.93;25.43;;;12.20;99.90;;;;;;5011759;28;20925;-82
2022/10/14 03:23:52;;;;;;;38.30;24.70;;;12.10;99.90;;;;;;5021850;28;20256;-83
2022/10/14 03:26:25;;;;;;;38.60;25.33;;;12.10;99.90;;;;;;5016474;28;21292;-84
2022/10/14 03:28:52;;;;;;;48.73;27.20;;;12.10;99.90;;;;;;5010076;28;20298;-83
2022/10/14 03:31:25;;;;;;;39.17;23.90;;;12.20;99.90;;;;;;5001688;28;20221;-83
2022/10/14 03:34:20;;;;;;;40.53;23.70;;;12.10;99.90;;;;;;5005233;28;20217;-83
2022/10/14 03:36:50;;;;;;;45.27;25.63;;;12.20;99.90;;;;;;5021100;28;20743;-82
2022/10/14 03:39:18;;;;;;;45.17;26.50;;;12.10;99.90;;;;;;5022519;28;20226;-82
2022/10/14 03:41:51;;;;;;;44.93;27.00;;;12.10;99.90;;;;;;5004494;28;20232;-81
2022/10/14 03:44:22;;;;;;;43.97;25.47;;;12.20;99.90;;;;;;5010215;28;20214;-82
2022/10/14 03:47:13;;;;;;;41.73;25.93;;;12.10;99.90;;;;;;5005458;28;20234;-83
2022/10/14 03:49:40;;;;;;;40.80;25.40;;;12.20;99.90;;;;;;5005825;28;20245;-82
2022/10/14 03:52:14;;;;;;;38.00;23.47;;;12.20;99.90;;;;;;5010524;28;20243;-82
2022/10/14 03:54:44;;;;;;;41.53;23.83;;;12.20;99.90;;;;;;5009217;28;20345;-82
2022/10/14 03:57:14;;;;;;;41.40;23.90;;;12.20;99.90;;;;;;5007163;28;20230;-82
2022/10/14 03:59:48;;;;;;;41.00;25.00;;;12.20;99.90;;;;;;5008488;28;20223;-82
2022/10/14 04:02:16;;;;;;;45.83;25.23;;;12.20;99.90;;;;;;4993564;28;20314;-83
2022/10/14 04:04:43;;;;;;;43.73;24.87;;;12.20;99.90;;;;;;5002504;28;20223;-83
2022/10/14 04:07:10;;;;;;;42.03;24.37;;;12.10;99.90;;;;;;5007529;28;20642;-82
2022/10/14 04:09:37;;;;;;;44.97;25.90;;;12.10;99.90;;;;;;5007369;28;21025;-83
2022/10/14 04:12:08;;;;;;;41.20;24.27;;;12.10;99.90;;;;;;5002318;28;20929;-82
2022/10/14 04:14:58;;;;;;;43.27;24.10;;;12.10;99.90;;;;;;4998406;28;20235;-83
2022/10/14 04:17:26;;;;;;;41.47;25.53;;;12.10;99.90;;;;;;5012881;28;20226;-83
2022/10/14 04:19:54;;;;;;;45.60;26.50;;;12.10;99.90;;;;;;5004202;28;20279;-82
2022/10/14 04:22:21;;;;;;;40.53;23.60;;;12.10;99.90;;;;;;5000319;28;20222;-78
2022/10/14 04:24:52;;;;;;;42.93;25.33;;;12.10;99.90;;;;;;4997614;28;20218;-79
2022/10/14 04:27:21;;;;;;;41.17;23.40;;;12.10;99.90;;;;;;4997262;28;20704;-79
2022/10/14 04:29:57;;;;;;;49.60;27.43;;;12.00;99.90;;;;;;5003631;28;20227;-78
2022/10/14 04:32:28;;;;;;;50.97;25.47;;;12.00;99.90;;;;;;4997480;28;20276;-78
2022/10/14 04:34:56;;;;;;;58.07;26.37;;;12.00;99.90;;;;;;4998622;28;20238;-79
2022/10/14 04:37:25;;;;;;;49.00;26.37;;;12.10;99.90;;;;;;5000717;28;20317;-78
2022/10/14 04:40:07;;;;;;;42.83;23.80;;;12.00;99.90;;;;;;5001347;28;20641;-79
2022/10/14 04:42:42;;;;;;;43.13;25.07;;;12.00;99.90;;;;;;5000679;28;20623;-79
2022/10/14 04:45:20;;;;;;;45.23;25.17;;;12.00;99.90;;;;;;5015574;28;20302;-77
2022/10/14 04:47:53;;;;;;;42.57;25.13;;;12.00;99.90;;;;;;4999156;28;20721;-78
2022/10/14 04:50:23;;;;;;;42.87;24.77;;;12.00;99.90;;;;;;5005431;28;20690;-78
2022/10/14 04:53:08;;;;;;;52.13;26.90;;;12.00;99.90;;;;;;5003681;28;20229;-79
2022/10/14 04:55:36;;;;;;;50.37;26.93;;;12.00;99.90;;;;;;4998774;28;20258;-78
2022/10/14 04:58:04;;;;;;;46.47;24.90;;;11.90;99.90;;;;;;5002276;28;20223;-78
2022/10/14 05:00:38;;;;;;;42.80;25.93;;;12.00;99.90;;;;;;5011253;28;20277;-79
2022/10/14 05:03:27;;;;;;;41.00;24.67;;;12.00;99.90;;;;;;4998504;28;20276;-79
2022/10/14 05:05:53;;;;;;;49.93;25.60;;;11.90;99.90;;;;;;4994618;28;20221;-79
2022/10/14 05:08:21;;;;;;;45.50;25.97;;;11.90;99.90;;;;;;5006139;28;20214;-78
2022/10/14 05:10:51;;;;;;;50.60;25.67;;;11.90;99.90;;;;;;5012490;28;20241;-80
2022/10/14 05:13:34;;;;;;;47.40;25.70;;;11.90;99.90;;;;;;5005554;28;20226;-78
2022/10/14 05:16:07;;;;;;;44.63;24.80;;;11.90;99.90;;;;;;4998682;28;20720;-78
2022/10/14 05:18:34;;;;;;;48.83;25.13;;;11.90;99.90;;;;;;4999027;28;20232;-78
2022/10/14 05:21:08;;;;;;;48.77;24.57;;;11.90;99.90;;;;;;5001911;28;20312;-78
2022/10/14 05:23:51;;;;;;;46.77;24.83;;;11.90;99.90;;;;;;4995714;28;22315;-80
2022/10/14 05:26:18;;;;;;;47.63;24.87;;;11.90;99.90;;;;;;5013696;28;20255;-81
2022/10/14 05:28:55;;;;;;;48.40;25.50;;;12.00;99.90;;;;;;5002356;28;20256;-81
2022/10/14 05:31:22;;;;;;;46.43;24.27;;;12.00;99.90;;;;;;5003638;28;20800;-81
2022/10/14 05:34:01;;;;;;;49.27;25.40;;;12.00;99.90;;;;;;5003171;28;20286;-81
2022/10/14 05:36:27;;;;;;;56.73;30.30;;;12.00;99.90;;;;;;5005625;28;20288;-81
2022/10/14 05:38:57;;;;;;;62.90;31.57;;;12.00;99.90;;;;;;5010597;28;20220;-81
2022/10/14 05:41:26;;;;;;;83.43;39.97;;;12.00;99.90;;;;;;4991973;28;20257;-81
2022/10/14 05:43:54;;;;;;;75.07;39.97;;;12.00;99.90;;;;;;5000810;28;20796;-81
2022/10/14 05:46:21;;;;;;;63.97;34.47;;;12.00;99.90;;;;;;4998990;28;20219;-82
2022/10/14 05:48:53;;;;;;;56.30;29.07;;;12.00;99.90;;;;;;4996369;28;20599;-82
2022/10/14 05:51:21;;;;;;;51.03;27.20;;;12.00;99.90;;;;;;5000753;28;20226;-82
2022/10/14 05:53:52;;;;;;;54.70;29.63;;;12.00;99.90;;;;;;5007991;28;20226;-82
2022/10/14 05:56:19;;;;;;;58.10;29.90;;;12.00;99.90;;;;;;4992070;28;20234;-82
2022/10/14 05:58:46;;;;;;;60.00;35.87;;;12.00;99.90;;;;;;4995723;28;20229;-81
2022/10/14 06:01:16;;;;;;;54.93;30.97;;;12.00;99.90;;;;;;5002163;28;20249;-82
2022/10/14 06:03:42;;;;;;;62.03;33.13;;;12.00;99.90;;;;;;5000773;28;20237;-82
2022/10/14 06:06:12;;;;;;;63.13;33.03;;;12.00;99.90;;;;;;5003550;28;20221;-82
2022/10/14 06:08:44;;;;;;;58.17;30.27;;;12.00;99.90;;;;;;5002709;28;20237;-82
2022/10/14 06:11:11;;;;;;;61.87;30.00;;;12.00;99.90;;;;;;4992439;28;20228;-81
2022/10/14 06:13:41;;;;;;;49.03;27.17;;;12.00;99.90;;;;;;5003749;28;20318;-82
2022/10/14 06:16:10;;;;;;;57.10;27.00;;;12.00;99.90;;;;;;5003291;28;20225;-82
2022/10/14 06:18:41;;;;;;;54.30;28.87;;;12.00;99.90;;;;;;5002035;28;20225;-82
2022/10/14 06:21:11;;;;;;;54.20;28.30;;;12.00;99.90;;;;;;5019560;28;20317;-82
2022/10/14 06:23:38;;;;;;;53.77;28.50;;;11.90;99.90;;;;;;5000102;28;20229;-82
2022/10/14 06:26:07;;;;;;;52.13;29.57;;;11.90;99.90;;;;;;5000055;28;20577;-82
2022/10/14 06:28:34;;;;;;;53.40;28.07;;;12.00;99.90;;;;;;4998008;28;20245;-82
2022/10/14 06:31:03;;;;;;;49.47;28.00;;;12.00;99.90;;;;;;5004320;28;20303;-82
2022/10/14 06:33:30;;;;;;;46.00;26.73;;;12.00;99.90;;;;;;5002424;28;20492;-82
2022/10/14 06:36:06;;;;;;;52.03;28.23;;;12.00;99.90;;;;;;4995254;28;20228;-82
2022/10/14 06:38:34;;;;;;;52.07;28.77;;;12.00;99.90;;;;;;5001865;28;20311;-82
2022/10/14 06:41:02;;;;;;;50.40;28.47;;;11.90;99.90;;;;;;5003112;28;20222;-81
2022/10/14 06:43:28;;;;;;;50.70;29.27;;;12.00;99.90;;;;;;5003663;28;20235;-82
2022/10/14 06:45:58;;;;;;;49.07;28.67;;;11.90;99.90;;;;;;5012514;28;20228;-82
2022/10/14 06:48:25;;;;;;;49.03;28.87;;;11.90;99.90;;;;;;4998176;28;20742;-81
2022/10/14 06:50:52;;;;;;;50.17;29.00;;;12.00;99.90;;;;;;4997067;28;20315;-82
2022/10/14 06:53:20;;;;;;;46.17;27.97;;;11.90;99.90;;;;;;5002035;28;20218;-82
2022/10/14 06:55:47;;;;;;;51.17;29.17;;;12.00;99.90;;;;;;4995760;28;20240;-82
2022/10/14 06:58:15;;;;;;;47.00;28.93;;;12.00;99.90;;;;;;5000269;28;20572;-82
2022/10/14 07:00:42;;;;;;;48.30;28.77;;;12.00;99.90;;;;;;5005375;28;20645;-82
2022/10/14 07:03:08;;;;;;;47.60;28.90;;;12.10;99.90;;;;;;5003573;28;20389;-82
2022/10/14 07:05:35;;;;;;;50.97;29.37;;;12.10;99.90;;;;;;5004377;28;20274;-82
2022/10/14 07:08:08;;;;;;;51.07;30.23;;;12.20;99.90;;;;;;5003018;28;20239;-81
2022/10/14 07:10:36;;;;;;;51.57;29.73;;;12.20;99.90;;;;;;5001838;28;20706;-82
2022/10/14 07:13:03;;;;;;;46.40;27.80;;;12.20;99.90;;;;;;4995143;28;20211;-82
2022/10/14 07:15:29;;;;;;;47.77;30.00;;;12.30;99.90;;;;;;4997377;28;20311;-81
2022/10/14 07:17:59;;;;;;;47.90;30.20;;;12.30;99.90;;;;;;5002393;28;20243;-82
2022/10/14 07:20:28;;;;;;;50.67;31.00;;;12.40;99.90;;;;;;5001531;28;20224;-82
2022/10/14 07:22:56;;;;;;;50.30;29.83;;;12.40;99.90;;;;;;4996916;28;20238;-81
2022/10/14 07:25:25;;;;;;;54.73;30.53;;;12.50;99.90;;;;;;4999147;28;20234;-81
2022/10/14 07:27:53;;;;;;;54.67;31.20;;;12.50;99.90;;;;;;5003281;28;20246;-81
2022/10/14 07:30:21;;;;;;;46.40;29.80;;;12.50;99.90;;;;;;5003843;28;20239;-81
2022/10/14 07:32:48;;;;;;;44.30;29.23;;;12.60;99.90;;;;;;5016741;28;20247;-82
2022/10/14 07:35:14;;;;;;;48.27;30.77;;;12.60;99.90;;;;;;4998470;28;20759;-82
2022/10/14 07:37:41;;;;;;;46.37;29.27;;;12.60;99.90;;;;;;5001825;28;20621;-82
2022/10/14 07:40:09;;;;;;;44.10;28.50;;;12.60;99.90;;;;;;5001605;28;20663;-82
2022/10/14 07:42:36;;;;;;;45.43;30.27;;;12.60;99.90;;;;;;5000163;28;20225;-82
2022/10/14 07:45:06;;;;;;;47.73;30.57;;;12.60;99.90;;;;;;4994818;28;20224;-81
2022/10/14 07:47:35;;;;;;;47.00;30.57;;;12.60;99.90;;;;;;4995955;28;20239;-81
2022/10/14 07:50:03;;;;;;;47.70;29.13;;;12.60;99.90;;;;;;5001932;28;20253;-82
2022/10/14 07:52:29;;;;;;;46.60;29.33;;;12.60;99.90;;;;;;5005553;28;20256;-81
2022/10/14 07:54:59;;;;;;;41.47;27.67;;;12.70;99.90;;;;;;5006333;28;20229;-81
2022/10/14 07:57:27;;;;;;;44.33;28.07;;;12.70;99.90;;;;;;5018122;28;20332;-81
2022/10/14 07:59:59;;;;;;;46.83;28.83;;;12.70;99.90;;;;;;4999787;28;20224;-82
2022/10/14 08:02:29;;;;;;;42.90;27.70;;;12.80;99.90;;;;;;4999322;28;20699;-81
2022/10/14 08:05:00;;;;;;;42.60;27.40;;;12.80;99.90;;;;;;4998126;28;20220;-82
2022/10/14 08:07:28;;;;;;;40.47;26.73;;;13.00;99.90;;;;;;4997716;28;20244;-82
2022/10/14 08:09:55;;;;;;;40.30;26.83;;;13.10;99.90;;;;;;5003665;28;20345;-81
2022/10/14 08:12:22;;;;;;;40.27;26.97;;;13.30;99.90;;;;;;5001994;28;20220;-81
2022/10/14 08:14:48;;;;;;;38.87;25.67;;;13.40;99.90;;;;;;5016291;28;20528;-81
2022/10/14 08:17:16;;;;;;;41.47;26.57;;;13.60;99.90;;;;;;5003477;28;20224;-81
2022/10/14 08:19:44;;;;;;;43.20;26.63;;;13.70;99.90;;;;;;4999516;28;20251;-82
2022/10/14 08:22:13;;;;;;;39.20;26.43;;;13.90;99.90;;;;;;5003195;28;20720;-81
2022/10/14 08:24:40;;;;;;;35.87;25.77;;;14.10;99.90;;;;;;5010862;28;20336;-81
2022/10/14 08:27:06;;;;;;;39.70;27.87;;;14.20;99.90;;;;;;5002752;28;20771;-81
2022/10/14 08:29:34;;;;;;;37.77;26.47;;;14.30;99.90;;;;;;4995202;28;20236;-81
2022/10/14 08:32:00;;;;;;;37.97;25.50;;;14.50;99.90;;;;;;4999983;28;20403;-81
2022/10/14 08:34:27;;;;;;;39.30;27.17;;;14.70;99.90;;;;;;5004133;28;20650;-81
2022/10/14 08:36:55;;;;;;;39.83;27.17;;;14.90;99.90;;;;;;5004511;28;20689;-81
2022/10/14 08:39:22;;;;;;;38.70;26.27;;;15.10;99.90;;;;;;5000540;28;20220;-81
2022/10/14 08:42:15;;;;;;;36.70;25.97;;;15.30;99.90;;;;;;5004194;28;20233;-81
2022/10/14 08:44:47;;;;;;;35.03;24.13;;;15.50;99.90;;;;;;4997570;28;20335;-81
2022/10/14 08:47:16;;;;;;;32.23;24.27;;;15.60;99.90;;;;;;5000817;28;20243;-81
2022/10/14 08:49:53;;;;;;;32.60;23.43;;;15.70;99.90;;;;;;4999803;28;20250;-82
2022/10/14 08:52:26;;;;;;;30.23;21.80;;;15.90;99.90;;;;;;5014927;28;20757;-81
2022/10/14 08:54:57;;;;;;;26.60;19.27;;;16.00;99.90;;;;;;5002021;28;20232;-81
2022/10/14 08:57:29;;;;;;;26.00;19.67;;;16.20;99.90;;;;;;5000672;28;20295;-81
2022/10/14 08:59:56;;;;;;;23.77;18.27;;;16.30;99.90;;;;;;4995880;28;20311;-81
2022/10/14 09:02:38;;;;;;;22.47;17.50;;;16.50;99.90;;;;;;5002014;28;20314;-81
2022/10/14 09:05:07;;;;;;;25.30;18.20;;;16.60;99.90;;;;;;5014180;28;20255;-81
2022/10/14 09:07:36;;;;;;;23.87;16.97;;;16.80;99.90;;;;;;5013223;28;20229;-81
2022/10/14 09:10:12;;;;;;;22.27;17.73;;;16.80;99.90;;;;;;5003912;28;20246;-81
2022/10/14 09:12:41;;;;;;;22.97;17.83;;;16.90;99.90;;;;;;5001899;28;20228;-81
2022/10/14 09:15:17;;;;;;;21.43;17.13;;;16.90;99.90;;;;;;5001395;28;20214;-81
2022/10/14 09:17:50;;;;;;;25.17;19.70;;;16.90;99.90;;;;;;4996864;28;20321;-81
2022/10/14 09:20:19;;;;;;;24.27;18.40;;;16.80;99.90;;;;;;5009260;28;20227;-81
2022/10/14 09:22:58;;;;;;;24.80;17.67;;;16.70;99.90;;;;;;5001918;28;20549;-81
2022/10/14 09:25:24;;;;;;;25.70;18.57;;;16.80;99.90;;;;;;4997399;28;20328;-82
2022/10/14 09:27:51;;;;;;;25.70;18.37;;;16.80;99.90;;;;;;4999174;28;20244;-81
2022/10/14 09:30:21;;;;;;;25.77;19.70;;;17.00;99.90;;;;;;4993207;28;20226;-81
2022/10/14 09:32:51;;;;;;;23.40;17.63;;;17.20;99.90;;;;;;5017441;28;20223;-82
2022/10/14 09:35:23;;;;;;;26.33;18.83;;;17.60;99.90;;;;;;4997343;28;20799;-81
2022/10/14 09:37:53;;;;;;;23.40;18.97;;;17.90;99.90;;;;;;4999980;28;20264;-81
2022/10/14 09:40:28;;;;;;;23.33;18.40;;;18.30;99.90;;;;;;5004070;23;20331;-94
2022/10/14 09:42:58;;;;;;;22.07;17.77;;;18.50;99.90;;;;;;5013918;28;20760;-94
2022/10/14 09:45:27;;;;;;;23.73;18.30;;;18.60;99.90;;;;;;5011007;28;20224;-91
2022/10/14 09:47:56;;;;;;;21.63;16.47;;;18.70;99.90;;;;;;4983708;28;20214;-92
2022/10/14 09:50:31;;;;;;;21.20;16.77;;;18.80;99.90;;;;;;4980729;28;20230;-91
2022/10/14 09:53:06;;;;;;;21.17;16.73;;;18.90;99.90;;;;;;5004898;28;20218;-92
2022/10/14 09:55:34;;;;;;;22.17;16.63;;;19.10;99.90;;;;;;4990084;28;20244;-91
2022/10/14 09:58:13;;;;;;;18.90;15.30;;;19.30;99.90;;;;;;4990974;28;20312;-91
2022/10/14 10:00:41;;;;;;;19.90;15.63;;;19.60;99.90;;;;;;4992126;28;20237;-93
2022/10/14 10:03:25;;;;;;;18.13;15.90;;;19.70;99.90;;;;;;4992795;28;20217;-91
2022/10/14 10:06:00;;;;;;;20.13;15.77;;;19.80;98.50;;;;;;4998778;28;20273;-92
2022/10/14 10:08:29;;;;;;;21.63;16.43;;;19.60;97.30;;;;;;4986236;28;20230;-91
2022/10/14 10:11:01;;;;;;;20.03;16.33;;;19.40;97.90;;;;;;4987960;28;20342;-92
2022/10/14 10:13:34;;;;;;;21.40;17.20;;;19.20;98.70;;;;;;4999971;28;20458;-92
2022/10/14 10:16:03;;;;;;;22.57;17.30;;;19.20;99.00;;;;;;4990495;28;20233;-90
2022/10/14 10:18:30;;;;;;;20.27;15.83;;;19.20;99.20;;;;;;5002178;28;20245;-92
2022/10/14 10:21:06;;;;;;;20.03;16.23;;;19.30;99.90;;;;;;4995978;28;20227;-91
2022/10/14 10:23:36;;;;;;;19.92;16.52;;;19.50;99.30;;;;;;4999535;28;20631;-90
2022/10/14 10:26:16;;;;;;;19.67;15.45;;;19.50;98.10;;;;;;4995179;28;20317;-91
2022/10/14 10:28:48;;;;;;;20.58;17.38;;;19.60;98.00;;;;;;5002488;28;20229;-90
2022/10/14 10:31:41;;;;;;;27.97;18.00;;;19.70;97.60;;;;;;4986551;28;20225;-91
2022/10/14 10:34:35;;;;;;;23.30;18.40;;;19.50;97.70;;;;;;4981129;28;20250;-91
2022/10/14 10:37:08;;;;;;;24.53;19.27;;;19.30;97.60;;;;;;4982562;28;21119;-91
2022/10/14 10:39:45;;;;;;;21.30;18.50;;;19.00;97.50;;;;;;4999860;28;20228;-94
2022/10/14 10:42:19;;;;;;;24.83;18.87;;;18.70;98.00;;;;;;4986519;28;20226;-91
2022/10/14 10:45:03;;;;;;;23.30;18.73;;;18.30;98.40;;;;;;4991015;28;20324;-92
2022/10/14 10:47:40;;;;;;;23.20;17.93;;;17.90;98.80;;;;;;4979829;28;20312;-91
2022/10/14 10:50:26;;;;;;;24.03;18.33;;;17.60;99.30;;;;;;4982763;28;20650;-91
2022/10/14 10:53:04;;;;;;;21.93;16.87;;;17.50;99.70;;;;;;4984485;28;20759;-92
2022/10/14 10:55:37;;;;;;;24.90;18.57;;;17.30;99.90;;;;;;4983378;28;20240;-93
2022/10/14 10:58:19;;;;;;;22.63;18.73;;;17.20;99.90;;;;;;4988163;28;20313;-91
2022/10/14 11:00:52;;;;;;;24.27;19.17;;;17.20;99.90;;;;;;4997692;28;20236;-93
2022/10/14 11:03:37;;;;;;;23.40;17.40;;;17.20;99.90;;;;;;4992844;28;20249;-92
2022/10/14 11:06:10;;;;;;;20.07;15.77;;;17.30;99.90;;;;;;4990290;28;20396;-92
2022/10/14 11:12:11;;;;;;;18.43;14.47;;;17.50;99.90;;;;;;5000955;28;20243;-92
2022/10/14 11:15:12;;;;;;;20.53;14.90;;;17.60;99.90;;;;;;4978710;28;20913;-91
2022/10/14 11:17:47;;;;;;;19.90;15.97;;;17.70;99.90;;;;;;4982753;28;20273;-91
2022/10/14 11:20:27;;;;;;;22.87;15.73;;;17.70;99.90;;;;;;4982440;28;20225;-91
2022/10/14 11:23:13;;;;;;;21.20;17.40;;;17.70;99.90;;;;;;5000223;28;20228;-91
2022/10/14 11:25:48;;;;;;;22.17;17.40;;;17.70;99.90;;;;;;4983451;28;20229;-91
2022/10/14 11:28:22;;;;;;;21.67;16.83;;;17.90;99.90;;;;;;4999511;28;20237;-91
2022/10/14 11:30:56;;;;;;;20.20;16.40;;;17.90;99.90;;;;;;4988867;28;20281;-92
2022/10/14 11:33:38;;;;;;;20.80;15.87;;;17.90;99.90;;;;;;4980151;28;20222;-91
2022/10/14 11:36:21;;;;;;;20.43;16.27;;;18.00;99.90;;;;;;5005643;28;20225;-93
2022/10/14 11:39:07;;;;;;;20.80;16.43;;;18.00;99.90;;;;;;4988811;28;20270;-92
2022/10/14 11:41:42;;;;;;;19.40;15.13;;;17.90;99.90;;;;;;4984186;28;20230;-91
2022/10/14 11:44:20;;;;;;;18.23;15.03;;;17.90;99.90;;;;;;4990663;28;20226;-92
2022/10/14 11:46:52;;;;;;;19.90;14.63;;;17.90;99.50;;;;;;4985654;28;20229;-93
2022/10/14 11:49:26;;;;;;;16.87;13.77;;;17.80;99.40;;;;;;4988648;28;20725;-92
2022/10/14 11:51:58;;;;;;;20.50;14.67;;;17.70;99.60;;;;;;4977293;28;20241;-91
2022/10/14 11:54:31;;;;;;;16.97;13.50;;;17.60;99.80;;;;;;4975684;28;20242;-90
2022/10/14 11:57:06;;;;;;;17.73;15.10;;;17.50;99.40;;;;;;4987870;28;20232;-91
2022/10/14 12:02:59;;;;;;;18.70;14.90;;;17.50;99.90;;;;;;4987010;28;20225;-95
2022/10/14 12:05:36;;;;;;;17.00;13.23;;;17.60;99.90;;;;;;4982826;28;20243;-91
2022/10/14 12:08:15;;;;;;;17.90;13.70;;;17.60;99.90;;;;;;5008365;28;20284;-91
2022/10/14 12:10:45;;;;;;;15.37;12.93;;;17.70;99.90;;;;;;4990498;28;20317;-91
2022/10/14 12:13:16;;;;;;;16.37;13.07;;;17.80;99.90;;;;;;4987312;28;20757;-91
2022/10/14 12:15:49;;;;;;;17.43;12.33;;;17.90;99.80;;;;;;4989667;28;20400;-90
2022/10/14 12:18:18;;;;;;;13.80;11.83;;;17.90;99.30;;;;;;4994132;28;20230;-91
2022/10/14 12:20:54;;;;;;;16.03;11.70;;;17.90;99.30;;;;;;5006181;28;20224;-93
2022/10/14 12:23:31;;;;;;;12.60;10.67;;;17.90;99.00;;;;;;4999481;28;20232;-91
2022/10/14 12:26:05;;;;;;;13.53;10.73;;;17.80;98.50;;;;;;4985416;28;20281;-91
2022/10/14 12:28:37;;;;;;;13.03;11.60;;;17.80;98.80;;;;;;4975024;28;20239;-91
2022/10/14 12:31:34;;;;;;;14.80;11.83;;;17.70;98.80;;;;;;4985771;28;20248;-91
2022/10/14 12:34:33;;;;;;;12.40;11.10;;;17.60;98.70;;;;;;5002264;28;20677;-91
2022/10/14 12:37:44;;;;;;;16.60;12.83;;;17.60;98.70;;;;;;4935479;29;21047;-90
2022/10/14 12:40:29;;;;;;;13.40;11.27;;;17.60;99.00;;;;;;4999535;28;20233;-91
2022/10/14 12:43:11;;;;;;;14.87;11.40;;;17.60;99.10;;;;;;4987957;28;20229;-90
2022/10/14 12:46:04;;;;;;;15.40;12.20;;;17.60;98.80;;;;;;4997971;28;20224;-91
2022/10/14 12:48:34;;;;;;;16.40;11.20;;;17.60;99.00;;;;;;5010918;23;20696;-81
2022/10/14 12:51:11;;;;;;;17.70;12.43;;;17.50;99.30;;;;;;5005300;28;20239;-81
2022/10/14 12:53:40;;;;;;;14.40;12.20;;;17.40;99.10;;;;;;5000388;28;20327;-81
2022/10/14 12:56:07;;;;;;;14.50;12.47;;;17.30;99.30;;;;;;4998509;28;20315;-81
2022/10/14 12:58:37;;;;;;;14.90;11.73;;;17.20;99.40;;;;;;5005374;28;20504;-82
2022/10/14 13:01:06;;;;;;;17.17;12.23;;;17.10;99.80;;;;;;5017400;28;20343;-81